sensor_id;sensor_type;location;lat;lon;timestamp;pressure;altitude;pressure_sealevel;temperature;humidity
23229;BME280;11783;50.350;6.576;2022-12-07T00:01:31;96274.50;;;1.35;100.00
23229;BME280;11783;50.350;6.576;2022-12-07T00:03:59;96265.47;;;1.37;100.00
23229;BME280;11783;50.350;6.576;2022-12-07T00:06:37;96268.13;;;1.44;100.00
23229;BME280;11783;50.350;6.576;2022-12-07T00:09:04;96261.13;;;1.30;100.00
23229;BME280;11783;50.350;6.576;2022-12-07T00:11:30;96259.41;;;1.37;100.00
23229;BME280;11783;50.350;6.576;2022-12-07T00:13:57;96266.00;;;1.33;100.00
23229;BME280;11783;50.350;6.576;2022-12-07T00:16:25;96252.94;;;1.33;100.00
23229;BME280;11783;50.350;6.576;2022-12-07T00:18:51;96244.88;;;1.34;100.00
23229;BME280;11783;50.350;6.576;2022-12-07T00:21:21;96249.13;;;1.35;100.00
23229;BME280;11783;50.350;6.576;2022-12-07T00:23:50;96243.69;;;1.37;100.00
23229;BME280;11783;50.350;6.576;2022-12-07T00:26:21;96248.94;;;1.37;100.00
23229;BME280;11783;50.350;6.576;2022-12-07T00:28:49;96244.06;;;1.34;100.00
23229;BME280;11783;50.350;6.576;2022-12-07T00:31:16;96240.03;;;1.31;100.00
23229;BME280;11783;50.350;6.576;2022-12-07T00:33:42;96239.69;;;1.19;100.00
23229;BME280;11783;50.350;6.576;2022-12-07T00:36:10;96239.13;;;1.24;100.00
23229;BME280;11783;50.350;6.576;2022-12-07T00:38:38;96240.53;;;1.27;100.00
23229;BME280;11783;50.350;6.576;2022-12-07T00:41:10;96243.53;;;1.24;100.00
23229;BME280;11783;50.350;6.576;2022-12-07T00:43:35;96244.91;;;1.19;100.00
23229;BME280;11783;50.350;6.576;2022-12-07T00:46:01;96249.97;;;1.21;100.00
23229;BME280;11783;50.350;6.576;2022-12-07T00:48:26;96240.28;;;1.21;100.00
23229;BME280;11783;50.350;6.576;2022-12-07T00:50:51;96240.28;;;1.21;100.00
23229;BME280;11783;50.350;6.576;2022-12-07T00:53:17;96232.69;;;1.27;100.00
23229;BME280;11783;50.350;6.576;2022-12-07T00:55:43;96232.69;;;1.27;100.00
23229;BME280;11783;50.350;6.576;2022-12-07T00:58:08;96230.88;;;1.27;100.00
23229;BME280;11783;50.350;6.576;2022-12-07T01:00:37;96222.34;;;1.18;100.00
23229;BME280;11783;50.350;6.576;2022-12-07T01:03:03;96221.72;;;1.16;100.00
23229;BME280;11783;50.350;6.576;2022-12-07T01:05:29;96221.16;;;1.21;100.00
23229;BME280;11783;50.350;6.576;2022-12-07T01:07:54;96227.78;;;1.17;100.00
23229;BME280;11783;50.350;6.576;2022-12-07T01:10:19;96222.16;;;1.20;100.00
23229;BME280;11783;50.350;6.576;2022-12-07T01:12:45;96221.28;;;1.13;100.00
23229;BME280;11783;50.350;6.576;2022-12-07T01:15:10;96226.78;;;1.18;100.00
23229;BME280;11783;50.350;6.576;2022-12-07T01:17:35;96230.56;;;1.15;100.00
23229;BME280;11783;50.350;6.576;2022-12-07T01:20:02;96224.78;;;1.20;100.00
23229;BME280;11783;50.350;6.576;2022-12-07T01:22:27;96223.53;;;1.16;100.00
23229;BME280;11783;50.350;6.576;2022-12-07T01:24:53;96227.22;;;1.21;100.00
23229;BME280;11783;50.350;6.576;2022-12-07T01:27:18;96230.88;;;1.27;100.00
23229;BME280;11783;50.350;6.576;2022-12-07T01:29:43;96223.13;;;1.34;100.00
23229;BME280;11783;50.350;6.576;2022-12-07T01:32:09;96232.78;;;1.33;100.00
23229;BME280;11783;50.350;6.576;2022-12-07T01:34:35;96217.88;;;1.34;100.00
23229;BME280;11783;50.350;6.576;2022-12-07T01:37:00;96225.63;;;1.42;100.00
23229;BME280;11783;50.350;6.576;2022-12-07T01:39:26;96220.38;;;1.42;100.00
23229;BME280;11783;50.350;6.576;2022-12-07T01:41:52;96221.19;;;1.42;100.00
23229;BME280;11783;50.350;6.576;2022-12-07T01:44:22;96221.19;;;1.42;100.00
23229;BME280;11783;50.350;6.576;2022-12-07T01:47:04;96216.75;;;1.43;100.00
23229;BME280;11783;50.350;6.576;2022-12-07T01:49:38;96223.44;;;1.45;100.00
23229;BME280;11783;50.350;6.576;2022-12-07T01:54:40;96220.63;;;1.47;100.00
23229;BME280;11783;50.350;6.576;2022-12-07T01:57:08;96224.38;;;1.38;100.00
23229;BME280;11783;50.350;6.576;2022-12-07T01:59:34;96227.22;;;1.43;100.00
23229;BME280;11783;50.350;6.576;2022-12-07T02:02:02;96219.81;;;1.46;100.00
23229;BME280;11783;50.350;6.576;2022-12-07T02:04:29;96220.00;;;1.45;100.00
23229;BME280;11783;50.350;6.576;2022-12-07T02:06:54;96215.94;;;1.42;100.00
23229;BME280;11783;50.350;6.576;2022-12-07T02:09:20;96213.53;;;1.41;100.00
23229;BME280;11783;50.350;6.576;2022-12-07T02:11:45;96211.72;;;1.41;100.00
23229;BME280;11783;50.350;6.576;2022-12-07T02:14:11;96217.50;;;1.37;100.00
23229;BME280;11783;50.350;6.576;2022-12-07T02:22:30;96210.03;;;1.34;100.00
23229;BME280;11783;50.350;6.576;2022-12-07T02:25:13;96206.59;;;1.33;100.00
23229;BME280;11783;50.350;6.576;2022-12-07T02:27:47;96205.78;;;1.33;100.00
23229;BME280;11783;50.350;6.576;2022-12-07T02:30:17;96203.41;;;1.38;100.00
23229;BME280;11783;50.350;6.576;2022-12-07T02:35:32;96198.63;;;1.41;100.00
23229;BME280;11783;50.350;6.576;2022-12-07T02:38:02;96187.75;;;1.44;100.00
23229;BME280;11783;50.350;6.576;2022-12-07T02:40:43;96194.00;;;1.43;100.00
23229;BME280;11783;50.350;6.576;2022-12-07T02:43:22;96199.44;;;1.42;100.00
23229;BME280;11783;50.350;6.576;2022-12-07T02:45:50;96195.19;;;1.41;100.00
23229;BME280;11783;50.350;6.576;2022-12-07T02:48:17;96196.44;;;1.45;100.00
23229;BME280;11783;50.350;6.576;2022-12-07T02:50:51;96187.56;;;1.46;100.00
23229;BME280;11783;50.350;6.576;2022-12-07T02:53:37;96182.34;;;1.46;100.00
23229;BME280;11783;50.350;6.576;2022-12-07T02:56:12;96189.19;;;1.47;100.00
23229;BME280;11783;50.350;6.576;2022-12-07T02:58:54;96193.19;;;1.43;100.00
23229;BME280;11783;50.350;6.576;2022-12-07T03:10:07;96176.91;;;1.47;100.00
23229;BME280;11783;50.350;6.576;2022-12-07T03:12:45;96186.66;;;1.54;100.00
23229;BME280;11783;50.350;6.576;2022-12-07T03:15:24;96178.53;;;1.48;100.00
23229;BME280;11783;50.350;6.576;2022-12-07T03:17:52;96171.50;;;1.49;100.00
23229;BME280;11783;50.350;6.576;2022-12-07T03:20:20;96175.63;;;1.37;100.00
23229;BME280;11783;50.350;6.576;2022-12-07T03:22:47;96182.56;;;1.30;100.00
23229;BME280;11783;50.350;6.576;2022-12-07T03:25:15;96182.84;;;1.35;100.00
23229;BME280;11783;50.350;6.576;2022-12-07T03:27:55;96181.03;;;1.35;100.00
23229;BME280;11783;50.350;6.576;2022-12-07T03:30:24;96179.03;;;1.37;100.00
23229;BME280;11783;50.350;6.576;2022-12-07T03:32:58;96185.09;;;1.38;100.00
23229;BME280;11783;50.350;6.576;2022-12-07T03:35:33;96178.63;;;1.34;100.00
23229;BME280;11783;50.350;6.576;2022-12-07T03:38:08;96183.47;;;1.37;100.00
23229;BME280;11783;50.350;6.576;2022-12-07T03:40:45;96183.22;;;1.32;100.00
23229;BME280;11783;50.350;6.576;2022-12-07T03:43:14;96180.66;;;1.38;100.00
23229;BME280;11783;50.350;6.576;2022-12-07T03:48:44;96181.47;;;1.39;100.00
23229;BME280;11783;50.350;6.576;2022-12-07T03:51:21;96181.72;;;1.44;100.00
23229;BME280;11783;50.350;6.576;2022-12-07T03:56:32;96176.06;;;1.40;100.00
23229;BME280;11783;50.350;6.576;2022-12-07T03:58:58;96173.84;;;1.44;100.00
23229;BME280;11783;50.350;6.576;2022-12-07T04:01:24;96172.84;;;1.45;100.00
23229;BME280;11783;50.350;6.576;2022-12-07T04:03:50;96179.09;;;1.44;100.00
23229;BME280;11783;50.350;6.576;2022-12-07T04:06:15;96180.53;;;1.46;100.00
23229;BME280;11783;50.350;6.576;2022-12-07T04:08:41;96181.16;;;1.48;100.00
23229;BME280;11783;50.350;6.576;2022-12-07T04:11:06;96184.97;;;1.46;100.00
23229;BME280;11783;50.350;6.576;2022-12-07T04:13:31;96178.53;;;1.48;100.00
23229;BME280;11783;50.350;6.576;2022-12-07T04:16:16;96174.75;;;1.51;100.00
23229;BME280;11783;50.350;6.576;2022-12-07T04:18:42;96179.00;;;1.52;100.00
23229;BME280;11783;50.350;6.576;2022-12-07T04:21:07;96174.75;;;1.51;100.00
23229;BME280;11783;50.350;6.576;2022-12-07T04:23:32;96183.41;;;1.51;100.00
23229;BME280;11783;50.350;6.576;2022-12-07T04:25:57;96176.56;;;1.50;100.00
23229;BME280;11783;50.350;6.576;2022-12-07T04:28:23;96184.59;;;1.49;100.00
23229;BME280;11783;50.350;6.576;2022-12-07T04:30:48;96183.41;;;1.51;100.00
23229;BME280;11783;50.350;6.576;2022-12-07T04:33:13;96184.22;;;1.52;100.00
23229;BME280;11783;50.350;6.576;2022-12-07T04:35:39;96179.38;;;1.49;100.00
23229;BME280;11783;50.350;6.576;2022-12-07T04:38:04;96172.47;;;1.48;100.00
23229;BME280;11783;50.350;6.576;2022-12-07T04:40:29;96172.75;;;1.53;100.00
23229;BME280;11783;50.350;6.576;2022-12-07T04:42:54;96169.31;;;1.52;100.00
23229;BME280;11783;50.350;6.576;2022-12-07T04:45:20;96171.19;;;1.59;100.00
23229;BME280;11783;50.350;6.576;2022-12-07T04:47:45;96172.81;;;1.60;100.00
23229;BME280;11783;50.350;6.576;2022-12-07T04:50:10;96167.75;;;1.58;100.00
23229;BME280;11783;50.350;6.576;2022-12-07T04:52:36;96175.19;;;1.55;100.00
23229;BME280;11783;50.350;6.576;2022-12-07T04:55:01;96167.69;;;1.51;100.00
23229;BME280;11783;50.350;6.576;2022-12-07T04:57:26;96167.69;;;1.51;100.00
23229;BME280;11783;50.350;6.576;2022-12-07T04:59:52;96172.13;;;1.51;100.00
23229;BME280;11783;50.350;6.576;2022-12-07T05:02:17;96174.38;;;1.54;100.00
23229;BME280;11783;50.350;6.576;2022-12-07T05:04:42;96177.19;;;1.52;100.00
23229;BME280;11783;50.350;6.576;2022-12-07T05:07:07;96175.81;;;1.57;100.00
23229;BME280;11783;50.350;6.576;2022-12-07T05:09:33;96180.84;;;1.58;100.00
23229;BME280;11783;50.350;6.576;2022-12-07T05:11:58;96176.41;;;1.59;100.00
23229;BME280;11783;50.350;6.576;2022-12-07T05:14:23;96174.81;;;1.58;100.00
23229;BME280;11783;50.350;6.576;2022-12-07T05:16:50;96175.22;;;1.61;100.00
23229;BME280;11783;50.350;6.576;2022-12-07T05:19:16;96175.84;;;1.63;100.00
23229;BME280;11783;50.350;6.576;2022-12-07T05:21:41;96176.03;;;1.62;100.00
23229;BME280;11783;50.350;6.576;2022-12-07T05:24:09;96180.84;;;1.58;100.00
23229;BME280;11783;50.350;6.576;2022-12-07T05:26:35;96177.81;;;1.55;100.00
23229;BME280;11783;50.350;6.576;2022-12-07T05:29:00;96179.19;;;1.50;100.00
23229;BME280;11783;50.350;6.576;2022-12-07T05:31:26;96182.00;;;1.49;100.00
23229;BME280;11783;50.350;6.576;2022-12-07T05:33:52;96176.75;;;1.49;100.00
23229;BME280;11783;50.350;6.576;2022-12-07T05:36:18;96180.34;;;1.48;100.00
23229;BME280;11783;50.350;6.576;2022-12-07T05:38:43;96181.00;;;1.50;100.00
23229;BME280;11783;50.350;6.576;2022-12-07T05:41:13;96180.00;;;1.51;100.00
23229;BME280;11783;50.350;6.576;2022-12-07T05:43:59;96176.19;;;1.54;100.00
23229;BME280;11783;50.350;6.576;2022-12-07T05:46:24;96181.41;;;1.54;100.00
23229;BME280;11783;50.350;6.576;2022-12-07T05:48:49;96176.59;;;1.57;100.00
23229;BME280;11783;50.350;6.576;2022-12-07T05:51:15;96171.00;;;1.60;100.00
23229;BME280;11783;50.350;6.576;2022-12-07T05:53:40;96177.22;;;1.59;100.00
23229;BME280;11783;50.350;6.576;2022-12-07T05:56:06;96167.75;;;1.58;100.00
23229;BME280;11783;50.350;6.576;2022-12-07T05:58:31;96166.13;;;1.57;100.00
23229;BME280;11783;50.350;6.576;2022-12-07T06:01:15;96177.03;;;1.61;100.00
23229;BME280;11783;50.350;6.576;2022-12-07T06:03:40;96167.38;;;1.61;100.00
23229;BME280;11783;50.350;6.576;2022-12-07T06:06:06;96173.41;;;1.62;100.00
23229;BME280;11783;50.350;6.576;2022-12-07T06:08:31;96170.00;;;1.61;100.00
23229;BME280;11783;50.350;6.576;2022-12-07T06:10:56;96170.56;;;1.57;100.00
23229;BME280;11783;50.350;6.576;2022-12-07T06:13:40;96175.38;;;1.53;100.00
23229;BME280;11783;50.350;6.576;2022-12-07T06:16:06;96174.19;;;1.56;100.00
23229;BME280;11783;50.350;6.576;2022-12-07T06:18:31;96176.59;;;1.57;100.00
23229;BME280;11783;50.350;6.576;2022-12-07T06:20:56;96183.91;;;1.62;100.00
23229;BME280;11783;50.350;6.576;2022-12-07T06:23:22;96174.81;;;1.58;100.00
23229;BME280;11783;50.350;6.576;2022-12-07T06:25:47;96178.66;;;1.62;100.00
23229;BME280;11783;50.350;6.576;2022-12-07T06:28:12;96176.03;;;1.62;100.00
23229;BME280;11783;50.350;6.576;2022-12-07T06:30:37;96175.84;;;1.63;100.00
23229;BME280;11783;50.350;6.576;2022-12-07T06:33:03;96175.22;;;1.61;100.00
23229;BME280;11783;50.350;6.576;2022-12-07T06:35:28;96183.50;;;1.65;100.00
23229;BME280;11783;50.350;6.576;2022-12-07T06:37:53;96183.16;;;1.68;100.00
23229;BME280;11783;50.350;6.576;2022-12-07T06:40:18;96187.25;;;1.77;100.00
23229;BME280;11783;50.350;6.576;2022-12-07T06:42:44;96182.84;;;1.77;100.00
23229;BME280;11783;50.350;6.576;2022-12-07T06:45:09;96179.22;;;1.78;100.00
23229;BME280;11783;50.350;6.576;2022-12-07T06:47:35;96190.06;;;1.75;100.00
23229;BME280;11783;50.350;6.576;2022-12-07T06:50:00;96179.59;;;1.75;100.00
23229;BME280;11783;50.350;6.576;2022-12-07T06:52:25;96181.22;;;1.76;100.00
23229;BME280;11783;50.350;6.576;2022-12-07T06:54:51;96190.06;;;1.75;100.00
23229;BME280;11783;50.350;6.576;2022-12-07T06:57:16;96186.44;;;1.76;100.00
23229;BME280;11783;50.350;6.576;2022-12-07T06:59:41;96190.25;;;1.74;100.00
23229;BME280;11783;50.350;6.576;2022-12-07T07:02:08;96191.06;;;1.74;100.00
23229;BME280;11783;50.350;6.576;2022-12-07T07:04:33;96185.63;;;1.76;100.00
23229;BME280;11783;50.350;6.576;2022-12-07T07:06:58;96182.59;;;1.72;100.00
23229;BME280;11783;50.350;6.576;2022-12-07T07:09:24;96200.75;;;1.74;100.00
23229;BME280;11783;50.350;6.576;2022-12-07T07:11:49;96191.88;;;1.75;100.00
23229;BME280;11783;50.350;6.576;2022-12-07T07:14:14;96198.56;;;1.77;100.00
23229;BME280;11783;50.350;6.576;2022-12-07T07:16:44;96194.50;;;1.75;100.00
23229;BME280;11783;50.350;6.576;2022-12-07T07:19:09;96198.56;;;1.77;100.00
23229;BME280;11783;50.350;6.576;2022-12-07T07:21:34;96194.13;;;1.78;100.00
23229;BME280;11783;50.350;6.576;2022-12-07T07:24:00;96204.19;;;1.74;100.00
23229;BME280;11783;50.350;6.576;2022-12-07T07:26:25;96204.38;;;1.73;100.00
23229;BME280;11783;50.350;6.576;2022-12-07T07:28:50;96204.19;;;1.74;100.00
23229;BME280;11783;50.350;6.576;2022-12-07T07:31:15;96205.97;;;1.74;100.00
23229;BME280;11783;50.350;6.576;2022-12-07T07:33:41;96211.03;;;1.75;100.00
23229;BME280;11783;50.350;6.576;2022-12-07T07:36:06;96208.84;;;1.79;100.00
23229;BME280;11783;50.350;6.576;2022-12-07T07:38:32;96216.66;;;1.72;100.00
23229;BME280;11783;50.350;6.576;2022-12-07T07:40:57;96213.47;;;1.77;100.00
23229;BME280;11783;50.350;6.576;2022-12-07T07:43:22;96216.09;;;1.77;100.00
23229;BME280;11783;50.350;6.576;2022-12-07T07:45:47;96211.22;;;1.74;100.00
23229;BME280;11783;50.350;6.576;2022-12-07T07:48:13;96204.19;;;1.74;100.00
23229;BME280;11783;50.350;6.576;2022-12-07T07:50:38;96209.78;;;1.71;100.00
23229;BME280;11783;50.350;6.576;2022-12-07T07:53:03;96198.13;;;1.74;100.00
23229;BME280;11783;50.350;6.576;2022-12-07T07:55:28;96204.97;;;1.75;100.00
23229;BME280;11783;50.350;6.576;2022-12-07T07:57:54;96206.19;;;1.72;100.00
23229;BME280;11783;50.350;6.576;2022-12-07T08:00:19;96202.31;;;1.68;100.00
23229;BME280;11783;50.350;6.576;2022-12-07T08:02:45;96207.19;;;1.71;100.00
23229;BME280;11783;50.350;6.576;2022-12-07T08:05:11;96197.88;;;1.69;100.00
23229;BME280;11783;50.350;6.576;2022-12-07T08:07:37;96199.69;;;1.68;100.00
23229;BME280;11783;50.350;6.576;2022-12-07T08:10:03;96210.59;;;1.72;100.00
23229;BME280;11783;50.350;6.576;2022-12-07T08:12:28;96208.59;;;1.74;100.00
23229;BME280;11783;50.350;6.576;2022-12-07T08:14:54;96215.09;;;1.78;100.00
23229;BME280;11783;50.350;6.576;2022-12-07T08:17:19;96217.94;;;1.83;100.00
23229;BME280;11783;50.350;6.576;2022-12-07T08:19:44;96216.81;;;1.92;100.00
23229;BME280;11783;50.350;6.576;2022-12-07T08:22:10;96214.00;;;1.94;100.00
23229;BME280;11783;50.350;6.576;2022-12-07T08:24:35;96216.69;;;2.00;100.00
23229;BME280;11783;50.350;6.576;2022-12-07T08:27:01;96213.88;;;2.02;100.00
23229;BME280;11783;50.350;6.576;2022-12-07T08:29:27;96218.63;;;2.20;100.00
23229;BME280;11783;50.350;6.576;2022-12-07T08:31:52;96231.00;;;2.26;100.00
23229;BME280;11783;50.350;6.576;2022-12-07T08:34:18;96219.31;;;2.28;100.00
23229;BME280;11783;50.350;6.576;2022-12-07T08:36:43;96223.94;;;2.26;100.00
23229;BME280;11783;50.350;6.576;2022-12-07T08:39:08;96227.94;;;2.22;100.00
23229;BME280;11783;50.350;6.576;2022-12-07T08:41:34;96228.75;;;2.23;100.00
23229;BME280;11783;50.350;6.576;2022-12-07T08:43:59;96227.13;;;2.22;100.00
23229;BME280;11783;50.350;6.576;2022-12-07T08:46:30;96232.03;;;2.03;100.00
23229;BME280;11783;50.350;6.576;2022-12-07T08:49:09;96236.09;;;2.06;100.00
23229;BME280;11783;50.350;6.576;2022-12-07T08:51:36;96236.34;;;2.11;100.00
23229;BME280;11783;50.350;6.576;2022-12-07T08:54:05;96232.91;;;2.10;100.00
23229;BME280;11783;50.350;6.576;2022-12-07T08:56:33;96229.09;;;2.13;100.00
23229;BME280;11783;50.350;6.576;2022-12-07T08:58:58;96228.28;;;2.12;100.00
23229;BME280;11783;50.350;6.576;2022-12-07T09:01:24;96227.91;;;2.16;100.00
23229;BME280;11783;50.350;6.576;2022-12-07T09:03:49;96225.06;;;2.17;100.00
23229;BME280;11783;50.350;6.576;2022-12-07T09:06:15;96222.69;;;2.22;100.00
23229;BME280;11783;50.350;6.576;2022-12-07T09:08:42;96223.78;;;2.34;100.00
23229;BME280;11783;50.350;6.576;2022-12-07T09:11:09;96222.88;;;2.49;100.00
23229;BME280;11783;50.350;6.576;2022-12-07T09:13:34;96223.06;;;2.47;100.00
23229;BME280;11783;50.350;6.576;2022-12-07T09:16:00;96219.09;;;2.58;100.00
23229;BME280;11783;50.350;6.576;2022-12-07T09:18:26;96226.84;;;2.72;100.00
23229;BME280;11783;50.350;6.576;2022-12-07T09:20:51;96219.03;;;2.79;100.00
23229;BME280;11783;50.350;6.576;2022-12-07T09:23:16;96212.19;;;2.85;100.00
23229;BME280;11783;50.350;6.576;2022-12-07T09:25:42;96214.22;;;2.89;100.00
23229;BME280;11783;50.350;6.576;2022-12-07T09:28:07;96214.84;;;2.91;100.00
23229;BME280;11783;50.350;6.576;2022-12-07T09:30:33;96214.09;;;3.04;100.00
23229;BME280;11783;50.350;6.576;2022-12-07T09:32:59;96219.53;;;3.02;100.00
23229;BME280;11783;50.350;6.576;2022-12-07T09:35:24;96223.38;;;3.00;100.00
23229;BME280;11783;50.350;6.576;2022-12-07T09:37:50;96219.34;;;3.04;100.00
23229;BME280;11783;50.350;6.576;2022-12-07T09:40:17;96220.28;;;2.96;100.00
23229;BME280;11783;50.350;6.576;2022-12-07T09:42:48;96222.91;;;2.90;100.00
23229;BME280;11783;50.350;6.576;2022-12-07T09:45:17;96222.91;;;2.90;100.00
23229;BME280;11783;50.350;6.576;2022-12-07T09:47:45;96223.50;;;2.85;100.00
23229;BME280;11783;50.350;6.576;2022-12-07T09:50:23;96222.50;;;2.86;100.00
23229;BME280;11783;50.350;6.576;2022-12-07T09:52:50;96218.25;;;2.85;100.00
23229;BME280;11783;50.350;6.576;2022-12-07T09:55:22;96220.81;;;2.79;100.00
23229;BME280;11783;50.350;6.576;2022-12-07T09:57:49;96214.34;;;2.74;100.00
23229;BME280;11783;50.350;6.576;2022-12-07T10:00:18;96213.34;;;2.76;100.00
23229;BME280;11783;50.350;6.576;2022-12-07T10:02:51;96217.81;;;2.82;100.00
23229;BME280;11783;50.350;6.576;2022-12-07T10:05:24;96202.91;;;2.82;100.00
23229;BME280;11783;50.350;6.576;2022-12-07T10:07:51;96204.50;;;2.83;100.00
23229;BME280;11783;50.350;6.576;2022-12-07T10:10:23;96210.56;;;2.84;100.00
23229;BME280;11783;50.350;6.576;2022-12-07T10:12:59;96205.31;;;2.84;100.00
23229;BME280;11783;50.350;6.576;2022-12-07T10:18:27;96205.34;;;2.90;100.00
23229;BME280;11783;50.350;6.576;2022-12-07T10:23:29;96207.22;;;3.03;100.00
23229;BME280;11783;50.350;6.576;2022-12-07T10:25:55;96203.81;;;3.16;100.00
23229;BME280;11783;50.350;6.576;2022-12-07T10:28:21;96206.63;;;3.14;100.00
23229;BME280;11783;50.350;6.576;2022-12-07T10:30:52;96203.19;;;3.07;100.00
23229;BME280;11783;50.350;6.576;2022-12-07T10:33:33;96192.88;;;3.06;100.00
23229;BME280;11783;50.350;6.576;2022-12-07T10:36:00;96195.91;;;3.02;100.00
23229;BME280;11783;50.350;6.576;2022-12-07T10:38:28;96194.50;;;3.07;100.00
23229;BME280;11783;50.350;6.576;2022-12-07T10:41:05;96196.13;;;3.08;100.00
23229;BME280;11783;50.350;6.576;2022-12-07T10:43:33;96186.00;;;3.04;100.00
23229;BME280;11783;50.350;6.576;2022-12-07T10:48:59;96176.72;;;3.09;100.00
23229;BME280;11783;50.350;6.576;2022-12-07T10:51:55;96172.03;;;2.97;100.00
23229;BME280;11783;50.350;6.576;2022-12-07T10:54:57;96170.84;;;3.00;100.00
23229;BME280;11783;50.350;6.576;2022-12-07T10:57:55;96170.06;;;3.13;100.00
23229;BME280;11783;50.350;6.576;2022-12-07T11:00:23;96168.69;;;3.17;100.00
23229;BME280;11783;50.350;6.576;2022-12-07T11:08:44;96166.13;;;3.37;100.00
23229;BME280;11783;50.350;6.576;2022-12-07T11:11:18;96162.06;;;3.41;100.00
23229;BME280;11783;50.350;6.576;2022-12-07T11:13:53;96166.13;;;3.43;100.00
23229;BME280;11783;50.350;6.576;2022-12-07T11:16:34;96157.00;;;3.32;100.00
23229;BME280;11783;50.350;6.576;2022-12-07T11:21:57;96147.72;;;3.37;100.00
23229;BME280;11783;50.350;6.576;2022-12-07T11:24:31;96146.09;;;3.36;100.00
23229;BME280;11783;50.350;6.576;2022-12-07T11:27:31;96139.66;;;3.38;100.00
23229;BME280;11783;50.350;6.576;2022-12-07T11:30:06;96141.03;;;3.27;100.00
23229;BME280;11783;50.350;6.576;2022-12-07T11:35:45;96139.03;;;3.36;100.00
23229;BME280;11783;50.350;6.576;2022-12-07T11:38:17;96127.91;;;3.41;100.00
23229;BME280;11783;50.350;6.576;2022-12-07T11:40:50;96134.38;;;3.45;100.00
23229;BME280;11783;50.350;6.576;2022-12-07T11:43:26;96130.75;;;3.52;100.00
23229;BME280;11783;50.350;6.576;2022-12-07T11:45:59;96129.53;;;3.48;100.00
23229;BME280;11783;50.350;6.576;2022-12-07T11:48:32;96127.31;;;3.52;100.00
23229;BME280;11783;50.350;6.576;2022-12-07T11:50:59;96125.72;;;3.57;100.00
23229;BME280;11783;50.350;6.576;2022-12-07T11:53:40;96126.72;;;3.56;100.00
23229;BME280;11783;50.350;6.576;2022-12-07T12:02:07;96113.59;;;3.56;100.00
23229;BME280;11783;50.350;6.576;2022-12-07T12:04:52;96111.75;;;3.44;100.00
23229;BME280;11783;50.350;6.576;2022-12-07T12:07:22;96115.00;;;3.39;100.00
23229;BME280;11783;50.350;6.576;2022-12-07T12:09:55;96107.66;;;3.15;100.00
23229;BME280;11783;50.350;6.576;2022-12-07T12:21:12;96104.81;;;3.10;100.00
23229;BME280;11783;50.350;6.576;2022-12-07T12:23:57;96099.97;;;3.13;100.00
23229;BME280;11783;50.350;6.576;2022-12-07T12:26:27;96096.97;;;3.23;100.00
23229;BME280;11783;50.350;6.576;2022-12-07T12:29:03;96098.19;;;3.33;100.00
23229;BME280;11783;50.350;6.576;2022-12-07T12:31:39;96087.69;;;3.47;100.00
23229;BME280;11783;50.350;6.576;2022-12-07T12:36:59;96087.69;;;3.67;100.00
23229;BME280;11783;50.350;6.576;2022-12-07T12:39:24;96081.63;;;3.66;100.00
23229;BME280;11783;50.350;6.576;2022-12-07T12:41:52;96084.88;;;3.68;100.00
23229;BME280;11783;50.350;6.576;2022-12-07T12:46:53;96080.44;;;3.62;100.00
23229;BME280;11783;50.350;6.576;2022-12-07T12:51:51;96080.63;;;3.80;100.00
23229;BME280;11783;50.350;6.576;2022-12-07T12:54:22;96074.50;;;4.06;100.00
23229;BME280;11783;50.350;6.576;2022-12-07T12:57:09;96065.34;;;4.29;100.00
23229;BME280;11783;50.350;6.576;2022-12-07T13:02:30;96073.78;;;4.44;100.00
23229;BME280;11783;50.350;6.576;2022-12-07T13:05:18;96078.31;;;4.30;100.00
23229;BME280;11783;50.350;6.576;2022-12-07T13:18:25;96073.13;;;3.90;100.00
23229;BME280;11783;50.350;6.576;2022-12-07T13:26:20;96068.09;;;3.56;100.00
23229;BME280;11783;50.350;6.576;2022-12-07T13:31:42;96052.53;;;3.68;100.00
23229;BME280;11783;50.350;6.576;2022-12-07T13:34:31;96053.91;;;3.83;100.00
23229;BME280;11783;50.350;6.576;2022-12-07T13:36:59;96033.84;;;4.02;100.00
23229;BME280;11783;50.350;6.576;2022-12-07T13:39:26;96035.84;;;4.07;100.00
23229;BME280;11783;50.350;6.576;2022-12-07T13:41:54;96041.94;;;4.14;100.00
23229;BME280;11783;50.350;6.576;2022-12-07T13:44:22;96040.09;;;4.14;100.00
23229;BME280;11783;50.350;6.576;2022-12-07T13:47:03;96035.31;;;3.91;100.00
23229;BME280;11783;50.350;6.576;2022-12-07T13:49:36;96039.94;;;3.89;100.00
23229;BME280;11783;50.350;6.576;2022-12-07T13:52:14;96043.44;;;3.63;100.00
23229;BME280;11783;50.350;6.576;2022-12-07T13:57:26;96035.16;;;3.33;100.00
23229;BME280;11783;50.350;6.576;2022-12-07T13:59:52;96032.53;;;3.33;100.00
23229;BME280;11783;50.350;6.576;2022-12-07T14:02:28;96036.38;;;3.31;100.00
23229;BME280;11783;50.350;6.576;2022-12-07T14:05:24;96034.75;;;3.30;100.00
23229;BME280;11783;50.350;6.576;2022-12-07T14:16:26;96028.28;;;3.32;100.00
23229;BME280;11783;50.350;6.576;2022-12-07T14:18:53;96033.16;;;3.36;100.00
23229;BME280;11783;50.350;6.576;2022-12-07T14:21:21;96033.13;;;3.29;100.00
23229;BME280;11783;50.350;6.576;2022-12-07T14:26:32;96032.31;;;3.28;100.00
23229;BME280;11783;50.350;6.576;2022-12-07T14:31:52;96030.28;;;3.11;100.00
23229;BME280;11783;50.350;6.576;2022-12-07T14:34:22;96034.16;;;3.01;100.00
23229;BME280;11783;50.350;6.576;2022-12-07T14:36:47;96032.31;;;3.09;100.00
23229;BME280;11783;50.350;6.576;2022-12-07T14:39:13;96029.28;;;2.98;100.00
23229;BME280;11783;50.350;6.576;2022-12-07T14:41:38;96028.69;;;3.03;100.00
23229;BME280;11783;50.350;6.576;2022-12-07T14:44:16;96027.44;;;2.92;100.00
23229;BME280;11783;50.350;6.576;2022-12-07T14:46:42;96025.84;;;2.91;100.00
23229;BME280;11783;50.350;6.576;2022-12-07T14:49:08;96025.44;;;2.94;100.00
23229;BME280;11783;50.350;6.576;2022-12-07T14:51:36;96019.56;;;2.86;100.00
23229;BME280;11783;50.350;6.576;2022-12-07T14:54:04;96024.00;;;2.79;100.00
23229;BME280;11783;50.350;6.576;2022-12-07T14:56:30;96025.41;;;2.74;100.00